Portada
METAR-TAF:

METAR-TAF

Aeroports :

Mary's Harbour, Territoris del Nord-oest, Canadà

latitud: 52-18N, longitud: 055-51W, altitud: 11 m

Observació

L'informe es va fer fa 20 minuts, a les 03:00 UTC
Vent 5 kt del Sud
Temperatura -4°C
Humitat 80%
Pressió 1020 hPa
Visibilitat: 14.5 km
Cel clar

METAR: CYMH 200300Z AUTO 17005KT 9SM CLR M04/M07 A3012 RMK SLP204

Hora: 21:20 (03:20 UTC)

Pronòstic

L'informe es va fer fa 7 hores i 40 minuts, a les 19:40 UTC
Pronòstic vàlid del 19 a les 20 UTC al 20 a les 03 UTC
Vent 8 kt del Nord-Est amb ràfegues de 18 kt
Visibilitat: 10 km
Cel clar
Evolucionant progressivament
l' 19 a les 22 UTC al 19 a les 24 UTC
Vent 8 kt del Sud
Escasses núvols a una alçada de 15000 ft

TAF: CYMH 191940Z 1920/2003 04008G18KT P6SM SKC BECMG 1922/1924 18008KT FEW150 RMK FCST BASED ON AUTO OBS. NXT FCST BY 200900Z

Observacions i pronòstics meteorològics de més de 4000 aeroports (METAR i TAF).

Les estacions disponibles són els punts grocs i vermells al mapa.

Posi el ratolí al punt desitjat per veure el nom de l'estació.

Feu clic per veure les observacions i els pronòstics meteorològics.

Per canviar el mapa: feu clic els botons verds amb una creu de color negre per apropar; al botó verd amb un guió per allunyar la imatge; o en les fletxes verdes per a mapes adjacents.


METAR-TAF: